Time;durP1;ratioP1;P1;durP2;ratioP2;P2;SDS_P1;SDS_P2;PMS_P1;PMS_P2;Temp;Humidity;BMP_temperature;BMP_pressure;BME280_temperature;BME280_humidity;BME280_pressure;Samples;Min_cycle;Max_cycle;Signal;HPM_P1;HPM_P2
2023/01/04 00:02:24;;;;;;;;;56.50;46.00;;;;;;;;5205398;28;8789;-70
2023/01/04 00:04:55;;;;;;;;;61.25;52.00;;;;;;;;5188184;28;8788;-71
2023/01/04 00:07:28;;;;;;;;;50.50;45.25;;;;;;;;5205190;28;8893;-71
2023/01/04 00:09:59;;;;;;;;;49.75;42.50;;;;;;;;5187711;28;8795;-71
2023/01/04 00:12:30;;;;;;;;;53.50;44.50;;;;;;;;5171623;28;8776;-71
2023/01/04 00:15:02;;;;;;;;;39.00;36.40;;;;;;;;5205369;28;8934;-71
2023/01/04 00:17:34;;;;;;;;;56.00;47.50;;;;;;;;5204072;28;8804;-71
2023/01/04 00:20:24;;;;;;;;;32.20;31.40;;;;;;;;5218420;28;8816;-71
2023/01/04 00:22:55;;;;;;;;;23.20;21.40;;;;;;;;5204114;28;8796;-71
2023/01/04 00:25:26;;;;;;;;;28.00;26.60;;;;;;;;5204317;28;9575;-71
2023/01/04 00:27:57;;;;;;;;;28.40;25.80;;;;;;;;5205136;28;9519;-71
2023/01/04 00:30:46;;;;;;;;;24.40;24.40;;;;;;;;5204365;28;9013;-71
2023/01/04 00:33:17;;;;;;;;;30.00;25.50;;;;;;;;5188236;28;8895;-71
2023/01/04 00:36:08;;;;;;;;;46.20;40.80;;;;;;;;5220750;28;11602;-71
2023/01/04 00:38:40;;;;;;;;;67.75;52.75;;;;;;;;5171142;28;8846;-73
2023/01/04 00:41:29;;;;;;;;;79.00;58.50;;;;;;;;5205507;28;8877;-73
2023/01/04 00:44:02;;;;;;;;;64.50;52.50;;;;;;;;5203976;28;8784;-73
2023/01/04 00:46:33;;;;;;;;;68.00;57.25;;;;;;;;5204000;28;8796;-73
2023/01/04 00:49:06;;;;;;;;;66.75;55.25;;;;;;;;5187533;28;8835;-74
2023/01/04 00:51:38;;;;;;;;;67.50;54.75;;;;;;;;5220797;28;8835;-73
2023/01/04 00:54:12;;;;;;;;;65.25;49.50;;;;;;;;5171508;28;8800;-73
2023/01/04 00:56:44;;;;;;;;;78.75;60.75;;;;;;;;5203711;28;8808;-73
2023/01/04 00:59:16;;;;;;;;;77.75;60.00;;;;;;;;5187158;28;8789;-73
2023/01/04 01:02:05;;;;;;;;;82.50;66.25;;;;;;;;5205238;28;9488;-73
2023/01/04 01:04:55;;;;;;;;;103.33;73.67;;;;;;;;5220813;28;8780;-73
2023/01/04 01:07:26;;;;;;;;;95.33;72.00;;;;;;;;5205347;28;9582;-72
2023/01/04 01:09:57;;;;;;;;;76.00;61.00;;;;;;;;5205425;28;9195;-73
2023/01/04 01:12:28;;;;;;;;;65.50;55.75;;;;;;;;5204938;28;11574;-70
2023/01/04 01:15:18;;;;;;;;;38.00;37.60;;;;;;;;5205200;28;8797;-70
2023/01/04 01:17:49;;;;;;;;;41.00;37.50;;;;;;;;5205448;28;8792;-71
2023/01/04 01:20:20;;;;;;;;;31.60;30.80;;;;;;;;5203572;28;8832;-71
2023/01/04 01:22:51;;;;;;;;;30.80;30.80;;;;;;;;5205776;28;8804;-71
2023/01/04 01:25:41;;;;;;;;;40.80;32.20;;;;;;;;5224661;28;8807;-71
2023/01/04 01:28:12;;;;;;;;;32.00;31.40;;;;;;;;5207718;28;8898;-69
2023/01/04 01:30:43;;;;;;;;;22.80;22.80;;;;;;;;5224162;28;8823;-70
2023/01/04 01:33:14;;;;;;;;;33.60;30.60;;;;;;;;5191285;28;8839;-69
2023/01/04 01:35:45;;;;;;;;;25.60;23.60;;;;;;;;5208543;28;8788;-70
2023/01/04 01:38:16;;;;;;;;;41.20;38.80;;;;;;;;5208977;28;9483;-70
2023/01/04 01:40:47;;;;;;;;;36.80;34.20;;;;;;;;5208283;28;8866;-70
2023/01/04 01:47:44;;;;;;;;;38.60;33.80;;;;;;;;5208281;28;8712;-69
2023/01/04 01:50:36;;;;;;;;;35.00;33.75;;;;;;;;5207599;28;8768;-70
2023/01/04 01:53:09;;;;;;;;;38.80;37.60;;;;;;;;5223508;28;9460;-70
2023/01/04 01:55:42;;;;;;;;;30.00;29.60;;;;;;;;5208429;28;8789;-70
2023/01/04 01:58:18;;;;;;;;;36.80;36.20;;;;;;;;5206903;28;8803;-71
2023/01/04 02:00:49;;;;;;;;;20.00;20.00;;;;;;;;5208477;28;8865;-69
2023/01/04 02:03:22;;;;;;;;;21.25;20.00;;;;;;;;5216255;28;8792;-69
2023/01/04 02:05:54;;;;;;;;;31.40;30.60;;;;;;;;5219368;28;8776;-70
2023/01/04 02:08:26;;;;;;;;;42.20;39.60;;;;;;;;5224717;28;8815;-71
2023/01/04 02:10:57;;;;;;;;;36.00;33.00;;;;;;;;5223094;28;8804;-70
2023/01/04 02:14:25;;;;;;;;;37.00;34.50;;;;;;;;5221687;28;8800;-71
2023/01/04 02:16:46;;;;;;;;;17.60;16.00;;;;;;;;5218913;28;8903;-71
2023/01/04 02:19:20;;;;;;;;;13.40;12.80;;;;;;;;5210377;28;8885;-71
2023/01/04 02:22:10;;;;;;;;;15.80;15.60;;;;;;;;5207074;28;9487;-72
2023/01/04 02:25:05;;;;;;;;;24.20;22.40;;;;;;;;5207536;28;8769;-72
2023/01/04 02:27:42;;;;;;;;;21.00;19.40;;;;;;;;5223050;28;8773;-70
2023/01/04 02:30:52;;;;;;;;;14.80;13.80;;;;;;;;5207852;28;8871;-71
2023/01/04 02:33:38;;;;;;;;;22.20;21.80;;;;;;;;5207759;28;8781;-72
2023/01/04 02:36:39;;;;;;;;;47.25;43.00;;;;;;;;5207807;28;8784;-72
2023/01/04 02:39:10;;;;;;;;;79.50;66.00;;;;;;;;5206860;28;8780;-72
2023/01/04 02:41:46;;;;;;;;;47.00;41.75;;;;;;;;5207307;28;8796;-72
2023/01/04 02:50:32;;;;;;;;;40.25;39.75;;;;;;;;5176286;28;8800;-71
2023/01/04 02:53:06;;;;;;;;;46.50;45.00;;;;;;;;5206788;28;8760;-71
2023/01/04 02:55:37;;;;;;;;;53.75;48.00;;;;;;;;5207069;28;8862;-71
2023/01/04 02:58:29;;;;;;;;;43.33;41.33;;;;;;;;5207179;28;8780;-72
2023/01/04 03:15:13;;;;;;;;;38.50;36.50;;;;;;;;5207015;28;8796;-69
2023/01/04 03:18:07;;;;;;;;;27.50;27.00;;;;;;;;5206848;28;8800;-70
2023/01/04 03:20:38;;;;;;;;;87.33;66.67;;;;;;;;5222137;28;8887;-70
2023/01/04 03:35:23;;;;;;;;;67.25;56.00;;;;;;;;5206400;28;8772;-68
2023/01/04 03:50:14;;;;;;;;;51.50;44.00;;;;;;;;5206652;28;8816;-69
2023/01/04 03:53:05;;;;;;;;;34.50;28.50;;;;;;;;5221654;28;8765;-68
2023/01/04 03:55:38;;;;;;;;;32.00;30.75;;;;;;;;5204400;28;8793;-69
2023/01/04 03:58:10;;;;;;;;;48.00;45.25;;;;;;;;5204392;28;8813;-68
2023/01/04 04:00:41;;;;;;;;;64.00;53.00;;;;;;;;5206157;28;8780;-68
2023/01/04 04:03:12;;;;;;;;;61.33;47.33;;;;;;;;5205822;28;8784;-68
2023/01/04 04:08:34;;;;;;;;;53.00;45.50;;;;;;;;5205816;28;8808;-70
2023/01/04 04:13:54;;;;;;;;;75.33;61.00;;;;;;;;5204647;28;8799;-70
2023/01/04 04:16:26;;;;;;;;;92.33;64.67;;;;;;;;5204295;28;9438;-69
2023/01/04 04:18:57;;;;;;;;;105.50;77.75;;;;;;;;5205588;28;11594;-70
2023/01/04 04:21:28;;;;;;;;;99.00;75.00;;;;;;;;5205246;28;10417;-69
2023/01/04 04:23:59;;;;;;;;;68.25;47.00;;;;;;;;5205144;28;11572;-70
2023/01/04 04:26:49;;;;;;;;;79.67;60.33;;;;;;;;5221553;28;9565;-70
2023/01/04 04:29:21;;;;;;;;;73.00;60.33;;;;;;;;5205669;28;9549;-71
2023/01/04 04:32:10;;;;;;;;;59.00;52.00;;;;;;;;5205639;28;9136;-70
2023/01/04 04:35:00;;;;;;;;;93.00;73.75;;;;;;;;5220894;28;8795;-70
2023/01/04 04:37:32;;;;;;;;;73.00;52.00;;;;;;;;5172230;28;9839;-70
2023/01/04 04:43:11;;;;;;;;;100.00;70.00;;;;;;;;5204018;28;10711;-71
2023/01/04 04:45:43;;;;;;;;;94.50;65.00;;;;;;;;5203577;28;11243;-70
2023/01/04 04:48:14;;;;;;;;;84.00;69.00;;;;;;;;5205011;28;10824;-72
2023/01/04 04:50:45;;;;;;;;;73.67;60.67;;;;;;;;5204879;28;10521;-68
2023/01/04 04:53:16;;;;;;;;;59.33;53.33;;;;;;;;5205272;28;8805;-71
2023/01/04 04:55:50;;;;;;;;;54.50;48.25;;;;;;;;5203786;28;12256;-71
2023/01/04 04:58:21;;;;;;;;;62.25;51.00;;;;;;;;5187265;28;9475;-72
2023/01/04 05:00:53;;;;;;;;;65.75;49.50;;;;;;;;5204827;28;8822;-71
2023/01/04 05:03:26;;;;;;;;;65.75;56.00;;;;;;;;5204325;28;8797;-71
2023/01/04 05:06:15;;;;;;;;;57.25;49.50;;;;;;;;5204978;28;8803;-72
2023/01/04 05:08:46;;;;;;;;;29.67;24.00;;;;;;;;5204573;28;8944;-70
2023/01/04 05:14:25;;;;;;;;;61.25;53.50;;;;;;;;5205045;28;8796;-69
2023/01/04 05:16:56;;;;;;;;;69.50;54.00;;;;;;;;5203535;28;8777;-69
2023/01/04 05:28:38;;;;;;;;;43.00;29.25;;;;;;;;5204628;28;8808;-72
2023/01/04 05:31:09;;;;;;;;;57.00;49.25;;;;;;;;5204589;28;8860;-71
2023/01/04 05:33:40;;;;;;;;;57.33;49.67;;;;;;;;5203595;28;8765;-73
2023/01/04 05:36:29;;;;;;;;;81.75;61.50;;;;;;;;5203749;28;9724;-72
2023/01/04 05:39:18;;;;;;;;;77.33;63.67;;;;;;;;5173536;28;8919;-70
2023/01/04 05:44:39;;;;;;;;;75.33;61.00;;;;;;;;5188360;28;10520;-72
2023/01/04 05:47:10;;;;;;;;;60.00;48.67;;;;;;;;5187151;28;9106;-72
2023/01/04 05:49:41;;;;;;;;;85.00;66.67;;;;;;;;5203108;28;9539;-71
2023/01/04 05:52:12;;;;;;;;;75.75;58.00;;;;;;;;5186810;28;8932;-72
2023/01/04 05:54:44;;;;;;;;;34.75;32.75;;;;;;;;5170879;28;8864;-71
2023/01/04 05:57:15;;;;;;;;;29.80;25.00;;;;;;;;5187057;28;8764;-71
2023/01/04 05:59:47;;;;;;;;;33.00;29.00;;;;;;;;5186974;28;8937;-71
2023/01/04 06:02:19;;;;;;;;;40.25;34.75;;;;;;;;5203236;28;8872;-71
2023/01/04 06:09:21;;;;;;;;;80.00;63.50;;;;;;;;5206567;28;8774;-72
2023/01/04 06:11:52;;;;;;;;;66.00;52.00;;;;;;;;5207526;28;8885;-71
2023/01/04 06:14:41;;;;;;;;;78.50;58.00;;;;;;;;5192867;28;8794;-71
2023/01/04 06:17:31;;;;;;;;;76.75;57.75;;;;;;;;5207051;28;8791;-72
2023/01/04 06:20:04;;;;;;;;;79.75;61.75;;;;;;;;5191164;28;8779;-75
2023/01/04 06:22:36;;;;;;;;;75.75;57.50;;;;;;;;5206423;28;8822;-70
2023/01/04 06:25:08;;;;;;;;;74.33;58.67;;;;;;;;5208113;28;8810;-72
2023/01/04 06:27:39;;;;;;;;;82.00;63.33;;;;;;;;5190311;28;8939;-73
2023/01/04 06:30:12;;;;;;;;;83.67;66.33;;;;;;;;5174323;28;9178;-72
2023/01/04 06:32:43;;;;;;;;;82.00;65.33;;;;;;;;5206255;28;9092;-72
2023/01/04 06:35:14;;;;;;;;;76.67;58.33;;;;;;;;5189849;28;12204;-73
2023/01/04 06:37:45;;;;;;;;;74.33;56.00;;;;;;;;5206216;28;9658;-73
2023/01/04 06:40:16;;;;;;;;;93.50;70.00;;;;;;;;5173378;28;11450;-71
2023/01/04 06:42:47;;;;;;;;;97.00;78.50;;;;;;;;5207278;28;8783;-73
2023/01/04 06:45:17;;;;;;;;;29.33;29.33;;;;;;;;5206539;28;10683;-73
2023/01/04 06:47:49;;;;;;;;;49.75;44.00;;;;;;;;5206144;28;10674;-73
2023/01/04 06:50:38;;;;;;;;;44.75;40.75;;;;;;;;5189393;28;8798;-73
2023/01/04 06:53:09;;;;;;;;;38.50;36.50;;;;;;;;5206252;28;8778;-74
2023/01/04 06:55:42;;;;;;;;;33.33;33.00;;;;;;;;5207270;28;9481;-72
2023/01/04 06:58:13;;;;;;;;;38.50;37.75;;;;;;;;5189035;28;12155;-72
2023/01/04 07:00:46;;;;;;;;;19.50;19.25;;;;;;;;5206799;28;8779;-71
2023/01/04 07:03:18;;;;;;;;;19.50;19.00;;;;;;;;5207950;28;8932;-70
2023/01/04 07:05:49;;;;;;;;;21.50;21.50;;;;;;;;5206626;28;8779;-73
2023/01/04 07:08:20;;;;;;;;;22.25;19.75;;;;;;;;5206989;28;8799;-71
2023/01/04 07:10:51;;;;;;;;;24.25;23.25;;;;;;;;5189389;28;8783;-72
2023/01/04 07:13:22;;;;;;;;;20.50;18.00;;;;;;;;5206019;28;8782;-74
2023/01/04 07:20:17;;;;;;;;;84.67;66.33;;;;;;;;5185162;28;9408;-70
2023/01/04 07:23:07;;;;;;;;;82.67;66.00;;;;;;;;5185273;28;9137;-70
2023/01/04 07:25:38;;;;;;;;;84.33;64.00;;;;;;;;5152547;28;9357;-72
2023/01/04 07:28:09;;;;;;;;;47.67;42.00;;;;;;;;5168946;28;9359;-73
2023/01/04 07:31:02;;;;;;;;;46.75;37.50;;;;;;;;5185864;28;11516;-73
2023/01/04 07:33:33;;;;;;;;;58.50;46.00;;;;;;;;5185099;28;8777;-71
2023/01/04 07:36:05;;;;;;;;;85.33;66.00;;;;;;;;5186007;28;8780;-68
2023/01/04 07:38:55;;;;;;;;;84.50;69.25;;;;;;;;5168594;28;11479;-71
2023/01/04 07:41:26;;;;;;;;;85.67;66.67;;;;;;;;5168100;28;9896;-72
2023/01/04 07:43:57;;;;;;;;;89.00;66.33;;;;;;;;5186128;28;8785;-71
2023/01/04 07:46:47;;;;;;;;;41.25;41.00;;;;;;;;5186212;28;9095;-71
2023/01/04 07:49:18;;;;;;;;;57.33;52.00;;;;;;;;5168216;28;8825;-71
2023/01/04 07:51:49;;;;;;;;;55.25;48.75;;;;;;;;5151889;28;9100;-71
2023/01/04 07:54:20;;;;;;;;;52.50;46.75;;;;;;;;5151864;28;8789;-72
2023/01/04 07:56:51;;;;;;;;;52.75;42.75;;;;;;;;5185305;28;8781;-71
2023/01/04 07:59:22;;;;;;;;;56.75;48.25;;;;;;;;5185601;28;8801;-71
2023/01/04 08:10:52;;;;;;;;;30.00;27.00;;;;;;;;5185306;28;8737;-73
2023/01/04 08:13:23;;;;;;;;;37.75;30.50;;;;;;;;5184130;28;8773;-72
2023/01/04 08:15:54;;;;;;;;;31.75;30.75;;;;;;;;5185885;28;9504;-72
2023/01/04 08:18:26;;;;;;;;;29.50;29.50;;;;;;;;5185454;28;8903;-72
2023/01/04 08:21:15;;;;;;;;;28.25;28.25;;;;;;;;5185447;28;8782;-72
2023/01/04 08:24:04;;;;;;;;;17.25;16.25;;;;;;;;5185794;28;8777;-71
2023/01/04 08:26:35;;;;;;;;;16.00;15.00;;;;;;;;5185947;28;8871;-73
2023/01/04 08:29:06;;;;;;;;;22.67;22.33;;;;;;;;5197381;28;8809;-73
2023/01/04 08:31:38;;;;;;;;;29.67;25.67;;;;;;;;5182124;28;11565;-73
2023/01/04 08:34:27;;;;;;;;;74.50;61.75;;;;;;;;5197300;28;8799;-71
2023/01/04 08:36:58;;;;;;;;;74.33;58.67;;;;;;;;5187362;28;8793;-71
2023/01/04 08:39:32;;;;;;;;;77.33;60.00;;;;;;;;5183860;28;8814;-71
2023/01/04 08:42:03;;;;;;;;;54.75;48.50;;;;;;;;5167933;28;8927;-72
2023/01/04 08:44:34;;;;;;;;;48.00;45.67;;;;;;;;5166838;28;8781;-71
2023/01/04 08:47:05;;;;;;;;;40.75;39.25;;;;;;;;5151103;28;11381;-72
2023/01/04 08:49:36;;;;;;;;;21.50;19.25;;;;;;;;5184514;28;8824;-72
2023/01/04 08:52:08;;;;;;;;;25.50;25.50;;;;;;;;5167039;28;8761;-72
2023/01/04 08:54:39;;;;;;;;;16.60;14.00;;;;;;;;5167088;28;8785;-71
2023/01/04 08:57:10;;;;;;;;;16.50;15.50;;;;;;;;5167396;28;8785;-71
2023/01/04 08:59:40;;;;;;;;;12.50;12.50;;;;;;;;5184372;28;11428;-71
2023/01/04 09:02:29;;;;;;;;;10.80;10.00;;;;;;;;5183305;28;10449;-70
2023/01/04 09:05:02;;;;;;;;;7.25;7.25;;;;;;;;5167514;28;8768;-70
2023/01/04 09:07:52;;;;;;;;;20.40;19.60;;;;;;;;5183065;28;8785;-71
2023/01/04 09:10:42;;;;;;;;;12.00;11.40;;;;;;;;5166845;28;9490;-71
2023/01/04 09:13:13;;;;;;;;;10.75;9.00;;;;;;;;5184479;28;8780;-71
2023/01/04 09:15:44;;;;;;;;;7.00;7.00;;;;;;;;5184572;28;11422;-73
2023/01/04 09:18:34;;;;;;;;;20.40;20.40;;;;;;;;5183658;28;8927;-73
2023/01/04 09:21:09;;;;;;;;;25.00;24.75;;;;;;;;5151172;28;8800;-73
2023/01/04 09:23:40;;;;;;;;;26.20;23.60;;;;;;;;5163012;28;8825;-74
2023/01/04 09:26:13;;;;;;;;;21.20;20.80;;;;;;;;5146878;28;8814;-73
2023/01/04 09:28:44;;;;;;;;;5.40;5.40;;;;;;;;5162814;28;8844;-73
2023/01/04 09:31:34;;;;;;;;;17.40;17.00;;;;;;;;5163081;28;8790;-73
2023/01/04 09:34:05;;;;;;;;;12.00;12.00;;;;;;;;5163829;28;8807;-73
2023/01/04 09:36:36;;;;;;;;;8.60;8.60;;;;;;;;5147915;28;8793;-73
2023/01/04 09:39:07;;;;;;;;;0.40;0.40;;;;;;;;5130619;28;8790;-73
2023/01/04 09:41:43;;;;;;;;;9.20;9.20;;;;;;;;5146477;28;8832;-74
2023/01/04 09:44:29;;;;;;;;;12.80;12.20;;;;;;;;5132870;28;8801;-74
2023/01/04 09:47:29;;;;;;;;;24.60;22.80;;;;;;;;5170221;28;8863;-77
2023/01/04 09:50:25;;;;;;;;;17.40;16.00;;;;;;;;5150931;28;8817;-74
2023/01/04 09:52:59;;;;;;;;;8.00;5.60;;;;;;;;5152849;28;8777;-80
2023/01/04 09:55:51;;;;;;;;;16.00;16.00;;;;;;;;5168019;28;8806;-72
2023/01/04 09:58:41;;;;;;;;;9.00;7.40;;;;;;;;5180644;28;8793;-73
2023/01/04 10:01:22;;;;;;;;;12.25;12.25;;;;;;;;5182979;28;8839;-72
2023/01/04 10:04:12;;;;;;;;;28.75;27.25;;;;;;;;5168094;28;8808;-72
2023/01/04 10:06:45;;;;;;;;;32.67;32.67;;;;;;;;5166005;28;8790;-73
2023/01/04 10:09:18;;;;;;;;;30.75;30.25;;;;;;;;5182242;28;10465;-74
2023/01/04 10:12:08;;;;;;;;;28.25;26.25;;;;;;;;5165988;28;8821;-71
2023/01/04 10:15:06;;;;;;;;;31.25;28.75;;;;;;;;5166970;28;8798;-72
2023/01/04 10:17:46;;;;;;;;;17.50;17.50;;;;;;;;5166862;28;8796;-71
2023/01/04 10:20:30;;;;;;;;;26.00;25.00;;;;;;;;5166427;28;8797;-72
2023/01/04 10:23:09;;;;;;;;;30.00;29.00;;;;;;;;5165642;28;8833;-71
2023/01/04 10:25:46;;;;;;;;;33.00;31.50;;;;;;;;5165796;28;8797;-72
2023/01/04 10:28:36;;;;;;;;;33.50;31.75;;;;;;;;5168793;28;8928;-72
2023/01/04 10:31:11;;;;;;;;;33.25;31.00;;;;;;;;5150047;28;9461;-72
2023/01/04 10:33:46;;;;;;;;;40.00;37.00;;;;;;;;5133685;28;8785;-71
2023/01/04 10:36:22;;;;;;;;;28.00;25.75;;;;;;;;5149594;28;8785;-72
2023/01/04 10:39:04;;;;;;;;;50.75;44.50;;;;;;;;5150246;28;8778;-74
2023/01/04 10:41:58;;;;;;;;;30.50;30.00;;;;;;;;5165662;28;8781;-72
2023/01/04 10:48:43;;;;;;;;;19.50;18.00;;;;;;;;5166258;28;9516;-70
2023/01/04 10:51:30;;;;;;;;;19.80;19.80;;;;;;;;5150111;28;8797;-72
2023/01/04 10:54:21;;;;;;;;;5.60;5.60;;;;;;;;5166558;28;9485;-71
2023/01/04 10:56:53;;;;;;;;;14.80;14.80;;;;;;;;5154698;28;8778;-73
2023/01/04 10:59:27;;;;;;;;;19.40;19.20;;;;;;;;5167327;28;8826;-71
2023/01/04 11:02:12;;;;;;;;;46.25;42.75;;;;;;;;5181435;28;8816;-70
2023/01/04 11:05:04;;;;;;;;;21.60;21.60;;;;;;;;5165103;28;8805;-70
2023/01/04 11:11:49;;;;;;;;;20.60;18.60;;;;;;;;5166185;28;9477;-69
2023/01/04 11:14:21;;;;;;;;;45.25;39.00;;;;;;;;5164601;28;8810;-69
2023/01/04 11:16:57;;;;;;;;;43.00;36.00;;;;;;;;5165061;28;8799;-71
2023/01/04 11:19:28;;;;;;;;;53.50;44.75;;;;;;;;5165710;28;9504;-70
2023/01/04 11:22:20;;;;;;;;;33.50;30.50;;;;;;;;5165586;28;8835;-72
2023/01/04 11:24:54;;;;;;;;;38.75;34.75;;;;;;;;5166252;28;8792;-71
2023/01/04 11:27:46;;;;;;;;;25.50;25.50;;;;;;;;5166084;28;8765;-71
2023/01/04 11:30:22;;;;;;;;;30.50;27.75;;;;;;;;5166122;28;8825;-72
2023/01/04 11:32:59;;;;;;;;;15.50;15.00;;;;;;;;5149221;28;9625;-70
2023/01/04 11:35:39;;;;;;;;;28.75;26.25;;;;;;;;5166148;28;8785;-71
2023/01/04 11:38:15;;;;;;;;;24.60;24.00;;;;;;;;5166007;28;8789;-71
2023/01/04 11:41:06;;;;;;;;;35.75;34.75;;;;;;;;5132292;28;8785;-72
2023/01/04 11:43:38;;;;;;;;;10.80;9.00;;;;;;;;5164839;28;8798;-71
2023/01/04 11:46:12;;;;;;;;;21.50;21.50;;;;;;;;5132580;28;9525;-70
2023/01/04 11:49:01;;;;;;;;;22.20;19.00;;;;;;;;5164763;28;8809;-71
2023/01/04 11:51:35;;;;;;;;;21.00;21.00;;;;;;;;5165715;28;8820;-71
2023/01/04 11:54:12;;;;;;;;;24.25;23.00;;;;;;;;5147854;28;11189;-70
2023/01/04 11:56:59;;;;;;;;;22.60;21.40;;;;;;;;5148590;28;8793;-72
2023/01/04 11:59:30;;;;;;;;;19.75;18.50;;;;;;;;5164163;28;8806;-70
2023/01/04 12:02:23;;;;;;;;;13.00;13.00;;;;;;;;5163825;28;8789;-69
2023/01/04 12:04:54;;;;;;;;;7.75;5.00;;;;;;;;5165142;28;8803;-70
2023/01/04 12:07:32;;;;;;;;;32.25;29.50;;;;;;;;5147072;28;8852;-70
2023/01/04 12:10:16;;;;;;;;;21.50;19.75;;;;;;;;5165082;28;9535;-70
2023/01/04 12:13:08;;;;;;;;;20.75;20.50;;;;;;;;5150190;28;8793;-69
2023/01/04 12:15:52;;;;;;;;;20.50;19.00;;;;;;;;5163789;28;8825;-70
2023/01/04 12:18:34;;;;;;;;;27.25;26.25;;;;;;;;5148051;28;8856;-70
2023/01/04 12:21:05;;;;;;;;;24.25;22.00;;;;;;;;5147435;28;8778;-68
2023/01/04 12:23:36;;;;;;;;;18.33;18.33;;;;;;;;5182318;28;8803;-69
2023/01/04 12:26:09;;;;;;;;;22.25;22.25;;;;;;;;5200388;28;11557;-69
2023/01/04 12:28:43;;;;;;;;;37.75;32.50;;;;;;;;5184101;28;8833;-69
2023/01/04 12:31:32;;;;;;;;;21.75;21.00;;;;;;;;5185534;28;8791;-69
2023/01/04 12:34:12;;;;;;;;;45.50;44.00;;;;;;;;5168473;28;8852;-70
2023/01/04 12:36:49;;;;;;;;;55.33;49.67;;;;;;;;5184807;28;8801;-70
2023/01/04 12:39:27;;;;;;;;;53.00;45.00;;;;;;;;5183681;28;8871;-71
2023/01/04 12:42:02;;;;;;;;;62.25;52.25;;;;;;;;5183963;28;8787;-70
2023/01/04 12:44:37;;;;;;;;;45.00;42.25;;;;;;;;5184698;28;8790;-70
2023/01/04 12:50:27;;;;;;;;;35.75;33.50;;;;;;;;5185802;28;8856;-70
2023/01/04 12:53:35;;;;;;;;;57.25;48.00;;;;;;;;5184688;28;8866;-70
2023/01/04 12:56:06;;;;;;;;;47.75;41.75;;;;;;;;5200606;28;8787;-70
2023/01/04 12:58:40;;;;;;;;;31.00;29.00;;;;;;;;5185180;28;8845;-69
2023/01/04 13:01:22;;;;;;;;;24.50;24.50;;;;;;;;5183777;28;8787;-70
2023/01/04 13:03:55;;;;;;;;;36.50;33.75;;;;;;;;5185042;28;8980;-69
2023/01/04 13:06:27;;;;;;;;;39.75;37.25;;;;;;;;5183755;28;8841;-69
2023/01/04 13:08:59;;;;;;;;;53.33;48.33;;;;;;;;5182876;28;8831;-69
2023/01/04 13:11:51;;;;;;;;;37.25;34.75;;;;;;;;5184441;28;8970;-69
2023/01/04 13:14:36;;;;;;;;;29.75;25.25;;;;;;;;5167384;28;8818;-70
2023/01/04 13:17:07;;;;;;;;;29.75;26.25;;;;;;;;5183319;28;8807;-69
2023/01/04 13:19:40;;;;;;;;;33.00;30.00;;;;;;;;5188304;28;8900;-69
2023/01/04 13:22:20;;;;;;;;;24.50;21.25;;;;;;;;5204852;28;8818;-70
2023/01/04 13:24:50;;;;;;;;;26.25;20.75;;;;;;;;5171866;28;8911;-70
2023/01/04 13:27:22;;;;;;;;;14.67;14.67;;;;;;;;5189300;28;8909;-70
2023/01/04 13:30:32;;;;;;;;;18.50;17.00;;;;;;;;5204143;28;10175;-69
2023/01/04 13:33:13;;;;;;;;;16.75;14.25;;;;;;;;5154906;28;9580;-69
2023/01/04 13:35:56;;;;;;;;;33.75;30.00;;;;;;;;5171109;28;8787;-70
2023/01/04 13:38:29;;;;;;;;;30.00;29.00;;;;;;;;5187757;28;9459;-68
2023/01/04 13:41:00;;;;;;;;;25.50;25.50;;;;;;;;5171128;28;8860;-68
2023/01/04 13:43:43;;;;;;;;;30.00;27.25;;;;;;;;5170577;28;8799;-69
2023/01/04 13:46:17;;;;;;;;;25.00;25.00;;;;;;;;5171220;28;8775;-69
2023/01/04 13:48:51;;;;;;;;;20.50;19.00;;;;;;;;5188079;28;8818;-69
2023/01/04 13:51:40;;;;;;;;;21.50;20.50;;;;;;;;5188068;28;8791;-68
2023/01/04 13:54:19;;;;;;;;;30.33;29.33;;;;;;;;5188586;28;8798;-69
2023/01/04 13:56:51;;;;;;;;;31.25;28.50;;;;;;;;5187899;28;8806;-68
2023/01/04 13:59:22;;;;;;;;;27.00;26.00;;;;;;;;5203128;28;8787;-69
2023/01/04 14:01:53;;;;;;;;;23.33;22.33;;;;;;;;5170721;28;8791;-68
2023/01/04 14:04:42;;;;;;;;;19.25;19.25;;;;;;;;5201008;28;11538;-69
2023/01/04 14:07:19;;;;;;;;;28.25;25.25;;;;;;;;5186957;28;8807;-68
2023/01/04 14:09:56;;;;;;;;;54.67;47.33;;;;;;;;5188311;28;8815;-68
2023/01/04 14:12:28;;;;;;;;;43.00;40.50;;;;;;;;5170518;28;8880;-68
2023/01/04 14:15:04;;;;;;;;;73.00;52.67;;;;;;;;5186371;28;8811;-67
2023/01/04 14:17:55;;;;;;;;;60.33;48.67;;;;;;;;5188094;28;9150;-69
2023/01/04 14:20:26;;;;;;;;;93.50;73.00;;;;;;;;5186286;28;9119;-68
2023/01/04 14:22:57;;;;;;;;;113.25;86.25;;;;;;;;5176117;28;10963;-67
2023/01/04 14:25:28;;;;;;;;;81.50;61.50;;;;;;;;5150325;28;8858;-70
2023/01/04 14:28:20;;;;;;;;;86.50;66.75;;;;;;;;5149621;28;10374;-70
2023/01/04 14:31:10;;;;;;;;;92.50;67.25;;;;;;;;5133442;28;12466;-69
2023/01/04 14:33:45;;;;;;;;;93.00;68.75;;;;;;;;5117189;28;10845;-69
2023/01/04 14:36:27;;;;;;;;;74.50;60.50;;;;;;;;5133546;28;11326;-69
2023/01/04 14:39:05;;;;;;;;;79.25;62.00;;;;;;;;5134299;28;10212;-68
2023/01/04 14:41:41;;;;;;;;;77.00;63.25;;;;;;;;5167436;28;10211;-71
2023/01/04 14:44:13;;;;;;;;;52.67;48.00;;;;;;;;5133661;28;10018;-70
2023/01/04 14:47:06;;;;;;;;;50.00;43.33;;;;;;;;5135665;28;9685;-71
2023/01/04 14:54:00;;;;;;;;;51.67;45.33;;;;;;;;5181207;28;8967;-70
2023/01/04 14:56:31;;;;;;;;;42.33;41.67;;;;;;;;5179753;28;9344;-69
2023/01/04 15:03:31;;;;;;;;;17.75;16.00;;;;;;;;5168833;28;8734;-72
2023/01/04 15:06:03;;;;;;;;;16.00;15.25;;;;;;;;5150114;28;8802;-71
2023/01/04 15:08:34;;;;;;;;;22.00;20.00;;;;;;;;5132804;28;8844;-71
2023/01/04 15:11:23;;;;;;;;;19.00;17.00;;;;;;;;5136094;28;8886;-73
2023/01/04 15:13:54;;;;;;;;;12.75;12.75;;;;;;;;5148519;28;9486;-71
2023/01/04 15:16:25;;;;;;;;;20.67;17.67;;;;;;;;5166068;28;8815;-72
2023/01/04 15:27:42;;;;;;;;;13.75;13.75;;;;;;;;5165915;28;8709;-72
2023/01/04 15:30:13;;;;;;;;;0.00;0.00;;;;;;;;5166477;28;8936;-71
2023/01/04 15:32:44;;;;;;;;;14.50;14.50;;;;;;;;5173638;28;11349;-72
2023/01/04 15:35:15;;;;;;;;;21.33;21.33;;;;;;;;5152550;28;9557;-71
2023/01/04 15:37:47;;;;;;;;;29.50;27.25;;;;;;;;5168829;28;9490;-70
2023/01/04 15:44:42;;;;;;;;;22.25;21.00;;;;;;;;5185744;28;8834;-70
2023/01/04 15:47:13;;;;;;;;;47.75;44.00;;;;;;;;5168319;28;8781;-72
2023/01/04 15:49:44;;;;;;;;;45.33;39.67;;;;;;;;5186028;28;8795;-70
2023/01/04 15:52:15;;;;;;;;;39.00;37.00;;;;;;;;5184544;28;8781;-72
2023/01/04 15:54:45;;;;;;;;;43.00;35.00;;;;;;;;5184683;28;9130;-71
2023/01/04 15:57:16;;;;;;;;;66.33;54.00;;;;;;;;5168177;28;11402;-71
2023/01/04 16:04:11;;;;;;;;;39.75;37.50;;;;;;;;5185236;28;12103;-70
2023/01/04 16:06:42;;;;;;;;;42.00;36.67;;;;;;;;5168297;28;8785;-72
2023/01/04 16:09:13;;;;;;;;;68.33;54.33;;;;;;;;5185791;28;9126;-71
2023/01/04 16:14:33;;;;;;;;;30.75;28.25;;;;;;;;5167635;28;8793;-70
2023/01/04 16:17:04;;;;;;;;;27.00;25.00;;;;;;;;5135947;28;8789;-71
2023/01/04 16:19:35;;;;;;;;;51.67;46.33;;;;;;;;5167952;28;8840;-72
2023/01/04 16:22:07;;;;;;;;;39.67;36.00;;;;;;;;5188110;28;11045;-73
2023/01/04 16:24:38;;;;;;;;;51.25;44.75;;;;;;;;5204952;28;8789;-71
2023/01/04 16:27:29;;;;;;;;;29.50;27.75;;;;;;;;5204364;28;8859;-70
2023/01/04 16:30:00;;;;;;;;;19.00;18.50;;;;;;;;5187760;28;8816;-71
2023/01/04 16:32:50;;;;;;;;;11.50;10.50;;;;;;;;5205658;28;8923;-71
2023/01/04 16:35:21;;;;;;;;;31.50;30.75;;;;;;;;5187539;28;8843;-72
2023/01/04 16:42:15;;;;;;;;;28.50;28.25;;;;;;;;5205218;28;8717;-71
2023/01/04 16:44:46;;;;;;;;;32.67;30.33;;;;;;;;5204230;28;8904;-71
2023/01/04 16:47:17;;;;;;;;;51.33;43.33;;;;;;;;5204937;28;9464;-71
2023/01/04 16:50:06;;;;;;;;;58.50;47.00;;;;;;;;5190154;28;8839;-71
2023/01/04 16:52:38;;;;;;;;;80.67;59.67;;;;;;;;5205165;28;8945;-71
2023/01/04 16:55:09;;;;;;;;;39.75;38.75;;;;;;;;5220665;28;9119;-71
2023/01/04 16:57:41;;;;;;;;;24.00;21.50;;;;;;;;5187340;28;8777;-72
2023/01/04 17:00:12;;;;;;;;;21.00;21.00;;;;;;;;5187644;28;8864;-72
2023/01/04 17:02:43;;;;;;;;;18.75;18.50;;;;;;;;5205225;28;8791;-72
2023/01/04 17:05:14;;;;;;;;;15.00;13.00;;;;;;;;5203368;28;8915;-73
2023/01/04 17:07:44;;;;;;;;;15.40;14.40;;;;;;;;5219946;28;8934;-72
2023/01/04 17:10:35;;;;;;;;;24.00;23.50;;;;;;;;5204807;28;8830;-72
2023/01/04 17:13:06;;;;;;;;;8.50;7.50;;;;;;;;5187270;28;8777;-70
2023/01/04 17:15:37;;;;;;;;;12.33;12.33;;;;;;;;5203724;28;9354;-71
2023/01/04 17:18:11;;;;;;;;;20.33;18.33;;;;;;;;5203267;28;12278;-70
2023/01/04 17:21:02;;;;;;;;;27.25;26.50;;;;;;;;5204785;28;11463;-71
2023/01/04 17:23:34;;;;;;;;;24.25;22.25;;;;;;;;5219932;28;8789;-72
2023/01/04 17:26:06;;;;;;;;;20.75;17.00;;;;;;;;5205086;28;8884;-72
2023/01/04 17:28:38;;;;;;;;;19.00;19.00;;;;;;;;5187140;28;8897;-72
2023/01/04 17:31:16;;;;;;;;;10.20;10.20;;;;;;;;5203564;28;8781;-72
2023/01/04 17:33:48;;;;;;;;;13.80;13.80;;;;;;;;5188267;28;9501;-71
2023/01/04 17:36:37;;;;;;;;;9.00;9.00;;;;;;;;5204150;28;8804;-71
2023/01/04 17:39:09;;;;;;;;;14.40;13.80;;;;;;;;5219684;28;8876;-71
2023/01/04 17:41:40;;;;;;;;;18.00;13.00;;;;;;;;5203184;28;9492;-73